createdAt,value
2018-07-08T00:00:19.387Z,5.30
2018-07-08T00:02:54.717Z,4.30
2018-07-08T00:05:29.819Z,3.97
2018-07-08T00:08:04.740Z,3.90
2018-07-08T00:10:41.798Z,3.70
2018-07-08T00:13:17.085Z,3.90
2018-07-08T00:15:52.606Z,4.73
2018-07-08T00:18:28.140Z,3.60
2018-07-08T00:21:03.279Z,3.70
2018-07-08T00:23:39.330Z,3.80
2018-07-08T00:26:14.431Z,3.87
2018-07-08T00:28:49.266Z,4.40
2018-07-08T00:31:24.512Z,3.67
2018-07-08T00:33:59.594Z,3.80
2018-07-08T00:36:34.299Z,3.60
2018-07-08T00:39:09.744Z,3.60
2018-07-08T00:41:44.912Z,3.93
2018-07-08T00:44:15.095Z,3.77
2018-07-08T00:46:50.191Z,4.00
2018-07-08T00:49:32.014Z,4.10
2018-07-08T00:52:06.992Z,4.13
2018-07-08T00:54:42.286Z,3.80
2018-07-08T00:57:17.223Z,4.27
2018-07-08T00:59:52.538Z,4.10
2018-07-08T01:02:27.561Z,4.00
2018-07-08T01:05:02.253Z,3.70
2018-07-08T01:07:37.071Z,3.73
2018-07-08T01:10:12.232Z,3.40
2018-07-08T01:12:46.932Z,3.97
2018-07-08T01:15:22.380Z,4.10
2018-07-08T01:17:57.223Z,4.13
2018-07-08T01:20:32.352Z,4.40
2018-07-08T01:23:07.380Z,4.20
2018-07-08T01:25:53.634Z,4.30
2018-07-08T01:28:28.698Z,4.67
2018-07-08T01:31:03.983Z,4.00
2018-07-08T01:33:39.125Z,4.20
2018-07-08T01:36:14.112Z,4.93
2018-07-08T01:38:49.150Z,4.50
2018-07-08T01:41:24.382Z,5.40
2018-07-08T01:44:01.113Z,4.20
2018-07-08T01:46:36.006Z,4.60
2018-07-08T01:49:10.529Z,3.77
2018-07-08T01:51:45.624Z,5.23
2018-07-08T01:54:20.465Z,4.90
2018-07-08T01:56:55.746Z,4.77
2018-07-08T01:59:31.255Z,5.10
2018-07-08T02:02:07.212Z,5.00
2018-07-08T02:04:42.175Z,4.53
2018-07-08T02:07:17.741Z,4.73
2018-07-08T02:09:52.762Z,4.80
2018-07-08T02:12:27.921Z,5.13
2018-07-08T02:15:02.607Z,4.80
2018-07-08T02:17:32.252Z,4.97
2018-07-08T02:20:07.606Z,4.80
2018-07-08T02:22:42.571Z,4.97
2018-07-08T02:25:17.603Z,4.97
2018-07-08T02:27:52.691Z,4.60
2018-07-08T02:30:30.601Z,5.70
2018-07-08T02:33:05.569Z,5.40
2018-07-08T02:35:41.715Z,5.30
2018-07-08T02:38:11.466Z,4.87
2018-07-08T02:40:47.122Z,5.43
2018-07-08T02:43:22.125Z,5.40
2018-07-08T02:45:57.522Z,5.60
2018-07-08T02:48:27.608Z,5.20
2018-07-08T02:51:02.585Z,5.87
2018-07-08T02:53:37.654Z,5.57
2018-07-08T02:56:12.349Z,5.60
2018-07-08T02:58:47.355Z,5.80
2018-07-08T03:01:23.193Z,4.97
2018-07-08T03:03:58.231Z,5.10
2018-07-08T03:06:33.212Z,5.97
2018-07-08T03:09:02.451Z,6.80
2018-07-08T03:11:37.600Z,5.70
2018-07-08T03:14:12.632Z,5.70
2018-07-08T03:16:47.869Z,5.90
2018-07-08T03:19:23.334Z,5.80
2018-07-08T03:22:02.186Z,5.40
2018-07-08T03:24:37.124Z,5.70
2018-07-08T03:27:12.092Z,6.00
2018-07-08T03:29:40.897Z,5.73
2018-07-08T03:32:15.479Z,6.57
2018-07-08T03:34:50.186Z,5.63
2018-07-08T03:37:25.066Z,5.93
2018-07-08T03:40:00.316Z,6.10
2018-07-08T03:42:35.322Z,6.40
2018-07-08T03:45:10.251Z,6.37
2018-07-08T03:47:45.249Z,6.00
2018-07-08T03:50:20.119Z,6.60
2018-07-08T03:52:55.067Z,6.27
2018-07-08T03:55:29.759Z,6.33
2018-07-08T03:58:04.627Z,6.60
2018-07-08T04:00:33.949Z,6.47
2018-07-08T04:03:15.123Z,6.40
2018-07-08T04:05:50.142Z,6.27
2018-07-08T04:08:25.037Z,7.13
2018-07-08T04:10:59.698Z,6.50
2018-07-08T04:13:34.790Z,6.43
2018-07-08T04:16:10.684Z,6.97
2018-07-08T04:18:45.502Z,6.80
2018-07-08T04:21:20.438Z,6.70
2018-07-08T04:23:55.372Z,6.30
2018-07-08T04:26:30.207Z,6.40
2018-07-08T04:29:05.132Z,7.10
2018-07-08T04:31:40.155Z,6.83
2018-07-08T04:34:15.087Z,6.90
2018-07-08T04:36:49.981Z,7.00
2018-07-08T04:39:24.512Z,7.47
2018-07-08T04:41:59.474Z,7.03
2018-07-08T04:44:34.183Z,6.40
2018-07-08T04:47:09.033Z,6.87
2018-07-08T04:49:43.888Z,7.50
2018-07-08T04:52:18.524Z,7.50
2018-07-08T04:54:53.451Z,7.20
2018-07-08T04:57:28.219Z,7.33
2018-07-08T05:00:03.641Z,6.33
2018-07-08T05:02:38.611Z,7.20
2018-07-08T05:05:13.257Z,6.63
2018-07-08T05:07:48.501Z,6.93
2018-07-08T05:10:24.132Z,7.17
2018-07-08T05:12:59.041Z,6.60
2018-07-08T05:15:33.956Z,7.20
2018-07-08T05:18:08.787Z,6.10
2018-07-08T05:20:43.871Z,6.17
2018-07-08T05:23:18.880Z,6.10
2018-07-08T05:25:53.676Z,7.10
2018-07-08T05:28:28.439Z,5.90
2018-07-08T05:31:03.482Z,6.00
2018-07-08T05:33:39.029Z,7.03
2018-07-08T05:36:13.988Z,7.43
2018-07-08T05:38:49.543Z,6.30
2018-07-08T05:41:24.584Z,5.53
2018-07-08T05:43:58.971Z,5.87
2018-07-08T05:46:33.830Z,6.43
2018-07-08T05:49:08.874Z,6.30
2018-07-08T05:51:45.467Z,6.13
2018-07-08T05:54:20.333Z,6.07
2018-07-08T05:56:55.257Z,6.13
2018-07-08T05:59:30.174Z,6.13
2018-07-08T06:02:05.198Z,5.97
2018-07-08T06:04:40.861Z,5.30
2018-07-08T06:07:16.731Z,5.97
2018-07-08T06:09:51.792Z,6.00
2018-07-08T06:12:26.763Z,5.83
2018-07-08T06:15:01.982Z,6.23
2018-07-08T06:17:37.087Z,5.77
2018-07-08T06:20:12.780Z,5.50
2018-07-08T06:22:47.674Z,6.30
2018-07-08T06:25:22.683Z,7.17
2018-07-08T06:27:57.787Z,5.80
2018-07-08T06:30:33.189Z,6.30
2018-07-08T06:33:08.151Z,5.93
2018-07-08T06:35:43.336Z,6.60
2018-07-08T06:38:18.590Z,7.10
2018-07-08T06:40:54.016Z,6.57
2018-07-08T06:43:29.139Z,7.57
2018-07-08T06:45:59.396Z,6.80
2018-07-08T06:48:34.763Z,6.77
2018-07-08T06:51:09.868Z,6.43
2018-07-08T06:53:44.883Z,7.00
2018-07-08T06:56:20.167Z,6.77
2018-07-08T06:58:55.151Z,6.33
2018-07-08T07:01:30.501Z,7.23
2018-07-08T07:04:05.975Z,7.30
2018-07-08T07:06:35.392Z,7.20
2018-07-08T07:09:11.143Z,7.30
2018-07-08T07:11:46.527Z,6.80
2018-07-08T07:14:21.821Z,5.93
2018-07-08T07:16:56.754Z,6.30
2018-07-08T07:19:31.906Z,6.00
2018-07-08T07:22:07.360Z,5.53
2018-07-08T07:24:42.169Z,5.70
2018-07-08T07:27:17.051Z,6.10
2018-07-08T07:29:52.353Z,6.33
2018-07-08T07:32:27.852Z,5.80
2018-07-08T07:35:03.076Z,6.13
2018-07-08T07:37:37.916Z,6.27
2018-07-08T07:40:13.380Z,5.20
2018-07-08T07:42:48.390Z,5.20
2018-07-08T07:45:23.308Z,4.13
2018-07-08T07:47:58.723Z,4.10
2018-07-08T07:50:33.692Z,3.73
2018-07-08T07:53:09.048Z,4.30
2018-07-08T07:55:43.898Z,5.13
2018-07-08T07:58:18.941Z,5.13
2018-07-08T08:00:54.136Z,4.20
2018-07-08T08:03:29.548Z,4.37
2018-07-08T08:06:04.675Z,4.77
2018-07-08T08:08:39.881Z,4.67
2018-07-08T08:11:15.241Z,3.30
2018-07-08T08:14:00.195Z,3.70
2018-07-08T08:16:35.303Z,3.20
2018-07-08T08:19:10.384Z,3.37
2018-07-08T08:21:45.408Z,2.93
2018-07-08T08:24:20.770Z,2.80
2018-07-08T08:26:56.385Z,2.70
2018-07-08T08:29:31.380Z,3.23
2018-07-08T08:32:07.043Z,2.80
2018-07-08T08:35:22.545Z,3.00
2018-07-08T08:37:58.262Z,2.70
2018-07-08T08:40:33.229Z,2.90
2018-07-08T08:43:08.284Z,3.27
2018-07-08T08:45:43.489Z,2.83
2018-07-08T08:48:18.780Z,2.83
2018-07-08T08:50:53.685Z,2.90
2018-07-08T08:53:28.673Z,3.03
2018-07-08T08:56:11.282Z,3.03
2018-07-08T08:58:47.137Z,3.00
2018-07-08T09:01:22.217Z,2.80
2018-07-08T09:03:57.757Z,3.03
2018-07-08T09:06:33.117Z,3.00
2018-07-08T09:09:08.504Z,3.10
2018-07-08T09:11:44.511Z,3.07
2018-07-08T09:14:20.215Z,3.30
2018-07-08T09:16:56.129Z,4.33
2018-07-08T09:19:31.181Z,2.77
2018-07-08T09:22:06.512Z,3.27
2018-07-08T09:24:41.521Z,3.07
2018-07-08T09:27:16.972Z,3.03
2018-07-08T09:29:52.336Z,3.00
2018-07-08T09:32:28.675Z,3.40
2018-07-08T09:35:03.973Z,3.37
2018-07-08T09:37:39.153Z,3.50
2018-07-08T09:40:14.220Z,3.77
2018-07-08T09:42:43.100Z,4.00
2018-07-08T09:45:18.281Z,3.23
2018-07-08T09:47:55.984Z,3.90
2018-07-08T09:50:31.156Z,3.77
2018-07-08T09:53:06.616Z,4.27
2018-07-08T09:55:41.403Z,3.47
2018-07-08T09:58:16.222Z,4.10
2018-07-08T10:00:51.389Z,3.50
2018-07-08T10:03:20.935Z,3.50
2018-07-08T10:05:56.181Z,3.90
2018-07-08T10:08:31.342Z,4.17
2018-07-08T10:11:06.548Z,4.20
2018-07-08T10:13:41.945Z,4.40
2018-07-08T10:16:17.620Z,4.73
2018-07-08T10:18:53.262Z,3.60
2018-07-08T10:21:28.802Z,3.80
2018-07-08T10:24:04.671Z,4.83
2018-07-08T10:26:40.222Z,4.93
2018-07-08T10:29:17.548Z,4.90
2018-07-08T10:31:53.166Z,5.20
2018-07-08T10:34:28.082Z,5.10
2018-07-08T10:37:03.832Z,5.07
2018-07-08T10:39:38.963Z,4.90
2018-07-08T10:42:13.700Z,4.83
2018-07-08T10:44:48.368Z,4.73
2018-07-08T10:47:23.218Z,5.30
2018-07-08T10:49:58.712Z,5.23
2018-07-08T10:52:33.889Z,5.13
2018-07-08T10:55:09.177Z,4.87
2018-07-08T10:57:44.718Z,4.50
2018-07-08T11:00:19.886Z,4.33
2018-07-08T11:02:54.984Z,5.23
2018-07-08T11:05:30.085Z,4.80
2018-07-08T11:08:05.381Z,4.50
2018-07-08T11:10:40.322Z,4.83
2018-07-08T11:13:15.544Z,4.30
2018-07-08T11:15:45.133Z,5.17
2018-07-08T11:18:20.050Z,5.13
2018-07-08T11:20:55.536Z,5.13
2018-07-08T11:23:31.070Z,5.30
2018-07-08T11:26:06.580Z,5.20
2018-07-08T11:28:41.781Z,5.70
2018-07-08T11:31:16.987Z,5.60
2018-07-08T11:33:52.874Z,5.23
2018-07-08T11:36:22.309Z,5.77
2018-07-08T11:38:57.440Z,5.40
2018-07-08T11:41:32.303Z,4.77
2018-07-08T11:44:07.810Z,5.20
2018-07-08T11:46:43.007Z,5.13
2018-07-08T11:49:18.623Z,5.30
2018-07-08T11:51:54.608Z,5.37
2018-07-08T11:54:29.485Z,5.27
2018-07-08T11:56:59.131Z,4.10
2018-07-08T11:59:34.246Z,5.47
2018-07-08T12:02:09.770Z,5.23
2018-07-08T12:04:45.197Z,6.00
2018-07-08T12:07:20.381Z,5.53
2018-07-08T12:09:55.340Z,5.27
2018-07-08T12:12:30.345Z,4.70
2018-07-08T12:15:05.681Z,6.13
2018-07-08T12:17:40.894Z,5.63
2018-07-08T12:20:15.829Z,5.30
2018-07-08T12:22:50.787Z,4.93
2018-07-08T12:25:25.643Z,4.60
2018-07-08T12:28:00.865Z,4.57
2018-07-08T12:30:36.060Z,5.10
2018-07-08T12:33:10.924Z,5.10
2018-07-08T12:35:46.531Z,4.40
2018-07-08T12:38:21.766Z,4.67
2018-07-08T12:40:57.027Z,4.30
2018-07-08T12:43:31.996Z,4.17
2018-07-08T12:46:07.333Z,5.60
2018-07-08T12:48:42.494Z,6.10
2018-07-08T12:51:17.336Z,5.40
2018-07-08T12:53:52.647Z,5.33
2018-07-08T12:56:27.910Z,6.33
2018-07-08T12:59:02.921Z,5.27
2018-07-08T13:01:38.124Z,6.40
2018-07-08T13:04:13.397Z,6.40
2018-07-08T13:06:48.652Z,5.73
2018-07-08T13:09:17.690Z,5.80
2018-07-08T13:11:53.257Z,5.00
2018-07-08T13:14:28.532Z,5.20
2018-07-08T13:16:57.699Z,5.10
2018-07-08T13:19:32.557Z,5.57
2018-07-08T13:22:07.681Z,4.63
2018-07-08T13:24:42.843Z,4.27
2018-07-08T13:27:18.163Z,3.70
2018-07-08T13:29:53.400Z,3.93
2018-07-08T13:32:28.397Z,3.60
2018-07-08T13:35:03.855Z,4.20
2018-07-08T13:37:34.659Z,4.30
2018-07-08T13:40:09.997Z,4.27
2018-07-08T13:42:45.148Z,3.90
2018-07-08T13:45:20.143Z,3.43
2018-07-08T13:47:55.364Z,3.50
2018-07-08T13:50:30.714Z,3.97
2018-07-08T13:53:05.495Z,4.23
2018-07-08T13:55:40.862Z,4.10
2018-07-08T13:58:16.120Z,3.50
2018-07-08T14:00:51.441Z,3.43
2018-07-08T14:03:26.815Z,3.27
2018-07-08T14:06:01.925Z,3.27
2018-07-08T14:08:36.980Z,3.30
2018-07-08T14:11:11.815Z,3.50
2018-07-08T14:13:47.037Z,3.00
2018-07-08T14:16:21.989Z,2.67
2018-07-08T14:18:57.167Z,2.53
2018-07-08T14:21:32.494Z,3.27
2018-07-08T14:24:07.603Z,3.47
2018-07-08T14:26:42.673Z,3.60
2018-07-08T14:29:12.561Z,4.03
2018-07-08T14:31:47.379Z,3.60
2018-07-08T14:34:22.871Z,3.30
2018-07-08T14:36:58.269Z,3.20
2018-07-08T14:39:32.994Z,3.20
2018-07-08T14:42:08.536Z,3.20
2018-07-08T14:44:43.740Z,3.37
2018-07-08T14:47:19.246Z,3.43
2018-07-08T14:49:48.898Z,3.73
2018-07-08T14:52:23.735Z,4.00
2018-07-08T14:54:59.002Z,3.63
2018-07-08T14:57:34.571Z,3.57
2018-07-08T15:00:09.874Z,3.23
2018-07-08T15:02:45.297Z,3.40
2018-07-08T15:05:20.775Z,2.83
2018-07-08T15:07:56.316Z,2.70
2018-07-08T15:10:32.555Z,2.63
2018-07-08T15:13:07.859Z,2.80
2018-07-08T15:15:42.732Z,3.20
2018-07-08T15:18:18.157Z,3.00
2018-07-08T15:20:53.216Z,2.77
2018-07-08T15:23:28.942Z,2.23
2018-07-08T15:26:04.591Z,2.27
2018-07-08T15:28:39.656Z,2.57
2018-07-08T15:31:14.869Z,2.50
2018-07-08T15:33:50.013Z,2.30
2018-07-08T15:36:19.786Z,2.90
2018-07-08T15:38:54.892Z,3.17
2018-07-08T15:41:29.834Z,2.77
2018-07-08T15:44:05.652Z,3.27
2018-07-08T15:46:40.799Z,2.80
2018-07-08T15:49:16.055Z,2.47
2018-07-08T15:51:51.275Z,2.20
2018-07-08T15:54:26.248Z,2.07
2018-07-08T15:56:55.372Z,2.87
2018-07-08T15:59:30.299Z,2.00
2018-07-08T16:02:05.726Z,2.50
2018-07-08T16:04:41.243Z,2.30
2018-07-08T16:07:16.790Z,2.60
2018-07-08T16:09:52.059Z,2.10
2018-07-08T16:12:27.021Z,2.13
2018-07-08T16:15:02.973Z,2.13
2018-07-08T16:17:38.379Z,2.00
2018-07-08T16:20:13.081Z,2.60
2018-07-08T16:22:48.371Z,2.80
2018-07-08T16:25:23.381Z,2.77
2018-07-08T16:27:58.291Z,2.60
2018-07-08T16:30:33.786Z,2.10
2018-07-08T16:33:09.071Z,2.30
2018-07-08T16:35:47.718Z,2.13
2018-07-08T16:38:22.950Z,2.30
2018-07-08T16:40:57.694Z,2.30
2018-07-08T16:43:33.141Z,2.27
2018-07-08T16:46:08.207Z,2.13
2018-07-08T16:48:47.814Z,2.50
2018-07-08T16:51:23.198Z,2.63
2018-07-08T16:53:58.698Z,2.23
2018-07-08T16:56:33.957Z,2.70
2018-07-08T16:59:10.691Z,2.03
2018-07-08T17:01:50.694Z,2.00
2018-07-08T17:04:24.358Z,2.10
2018-07-08T17:06:59.763Z,2.53
2018-07-08T17:09:36.092Z,2.27
2018-07-08T17:12:12.235Z,1.90
2018-07-08T17:14:47.517Z,2.57
2018-07-08T17:17:23.085Z,2.20
2018-07-08T17:19:59.885Z,2.27
2018-07-08T17:22:35.512Z,2.70
2018-07-08T17:25:05.029Z,2.77
2018-07-08T17:27:40.221Z,2.10
2018-07-08T17:30:15.847Z,2.40
2018-07-08T17:32:52.328Z,2.33
2018-07-08T17:35:27.835Z,2.43
2018-07-08T17:38:02.772Z,2.47
2018-07-08T17:40:38.006Z,2.47
2018-07-08T17:43:13.503Z,2.70
2018-07-08T17:45:43.263Z,2.10
2018-07-08T17:48:18.601Z,2.13
2018-07-08T17:50:53.857Z,2.10
2018-07-08T17:53:30.332Z,2.27
2018-07-08T17:56:05.511Z,2.10
2018-07-08T17:58:40.356Z,1.93
2018-07-08T18:01:16.606Z,2.17
2018-07-08T18:03:51.549Z,2.67
2018-07-08T18:06:20.989Z,2.03
2018-07-08T18:08:55.929Z,2.43
2018-07-08T18:11:31.031Z,2.60
2018-07-08T18:14:06.629Z,2.50
2018-07-08T18:16:41.630Z,2.30
2018-07-08T18:19:16.814Z,2.40
2018-07-08T18:21:51.993Z,2.30
2018-07-08T18:24:27.256Z,2.30
2018-07-08T18:26:59.282Z,2.77
2018-07-08T18:29:34.286Z,2.50
2018-07-08T18:32:09.723Z,2.60
2018-07-08T18:34:45.012Z,2.93
2018-07-08T18:37:20.237Z,2.43
2018-07-08T18:39:55.623Z,2.63
2018-07-08T18:42:30.625Z,2.50
2018-07-08T18:45:06.112Z,2.50
2018-07-08T18:47:41.624Z,2.13
2018-07-08T18:50:16.639Z,2.67
2018-07-08T18:52:52.180Z,2.60
2018-07-08T18:55:27.236Z,2.40
2018-07-08T18:58:02.510Z,3.03
2018-07-08T19:00:37.592Z,3.03
2018-07-08T19:03:13.291Z,2.53
2018-07-08T19:05:49.247Z,3.07
2018-07-08T19:08:26.506Z,2.67
2018-07-08T19:11:02.818Z,2.70
2018-07-08T19:13:38.178Z,2.97
2018-07-08T19:16:13.568Z,2.63
2018-07-08T19:18:48.976Z,2.60
2018-07-08T19:21:24.850Z,3.80
2018-07-08T19:24:00.303Z,3.03
2018-07-08T19:26:35.903Z,2.77
2018-07-08T19:29:11.281Z,2.93
2018-07-08T19:31:46.995Z,3.00
2018-07-08T19:34:22.122Z,3.37
2018-07-08T19:36:58.260Z,2.53
2018-07-08T19:39:34.008Z,2.60
2018-07-08T19:42:09.175Z,3.03
2018-07-08T19:44:44.345Z,3.10
2018-07-08T19:47:19.810Z,2.90
2018-07-08T19:49:55.579Z,2.93
2018-07-08T19:52:30.991Z,3.20
2018-07-08T19:55:06.573Z,3.20
2018-07-08T19:57:41.994Z,2.60
2018-07-08T20:00:24.378Z,3.10
2018-07-08T20:03:00.179Z,3.00
2018-07-08T20:05:35.273Z,3.10
2018-07-08T20:08:12.461Z,3.30
2018-07-08T20:10:49.677Z,2.90
2018-07-08T20:13:24.953Z,2.90
2018-07-08T20:16:00.724Z,3.00
2018-07-08T20:18:36.052Z,2.73
2018-07-08T20:21:11.774Z,2.70
2018-07-08T20:23:47.299Z,2.90
2018-07-08T20:26:24.429Z,2.90
2018-07-08T20:28:59.419Z,2.53
2018-07-08T20:31:37.122Z,2.80
2018-07-08T20:34:13.254Z,3.03
2018-07-08T20:36:48.461Z,2.73
2018-07-08T20:39:26.420Z,2.90
2018-07-08T20:42:02.981Z,2.90
2018-07-08T20:44:38.415Z,3.17
2018-07-08T20:47:13.378Z,2.97
2018-07-08T20:49:45.773Z,3.10
2018-07-08T20:52:24.110Z,3.03
2018-07-08T20:55:01.099Z,3.40
2018-07-08T20:57:37.966Z,3.60
2018-07-08T21:00:13.943Z,3.50
2018-07-08T21:02:49.087Z,3.47
2018-07-08T21:05:25.270Z,3.10
2018-07-08T21:08:00.594Z,3.60
2018-07-08T21:10:30.940Z,3.43
2018-07-08T21:13:07.685Z,3.70
2018-07-08T21:15:43.116Z,4.10
2018-07-08T21:18:19.264Z,3.10
2018-07-08T21:20:54.790Z,3.57
2018-07-08T21:23:30.533Z,3.33
2018-07-08T21:26:09.548Z,3.77
2018-07-08T21:28:46.991Z,3.60
2018-07-08T21:31:19.564Z,4.20
2018-07-08T21:33:55.054Z,4.40
2018-07-08T21:36:30.291Z,3.87
2018-07-08T21:39:08.063Z,4.37
2018-07-08T21:41:38.171Z,3.80
2018-07-08T21:44:13.486Z,4.10
2018-07-08T21:46:47.972Z,4.50
2018-07-08T21:49:23.290Z,4.40
2018-07-08T21:51:58.412Z,4.23
2018-07-08T21:54:33.596Z,4.77
2018-07-08T21:57:08.584Z,5.23
2018-07-08T21:59:44.434Z,4.57
2018-07-08T22:02:22.314Z,4.70
2018-07-08T22:04:57.685Z,5.13
2018-07-08T22:07:38.559Z,4.80
2018-07-08T22:10:13.772Z,5.10
2018-07-08T22:12:48.940Z,5.10
2018-07-08T22:15:24.049Z,4.80
2018-07-08T22:17:59.159Z,5.40
2018-07-08T22:20:34.098Z,5.27
2018-07-08T22:23:07.554Z,5.07
2018-07-08T22:25:42.639Z,5.20
2018-07-08T22:28:17.940Z,5.33
2018-07-08T22:30:52.977Z,4.80
2018-07-08T22:33:28.159Z,5.13
2018-07-08T22:36:03.362Z,5.17
2018-07-08T22:38:38.673Z,5.13
2018-07-08T22:41:13.882Z,5.43
2018-07-08T22:43:48.438Z,4.83
2018-07-08T22:46:23.836Z,5.10
2018-07-08T22:48:59.091Z,5.40
2018-07-08T22:51:34.318Z,5.33
2018-07-08T22:54:09.572Z,5.47
2018-07-08T22:56:44.704Z,5.37
2018-07-08T22:59:19.711Z,5.30
2018-07-08T23:02:05.940Z,5.10
2018-07-08T23:04:41.355Z,5.97
2018-07-08T23:07:16.533Z,6.53
2018-07-08T23:09:52.122Z,5.80
2018-07-08T23:12:27.373Z,5.50
2018-07-08T23:15:02.343Z,5.30
2018-07-08T23:17:37.251Z,5.67
2018-07-08T23:20:12.194Z,6.00
2018-07-08T23:22:55.820Z,6.20
2018-07-08T23:25:30.657Z,6.00
2018-07-08T23:28:05.878Z,6.30
2018-07-08T23:30:40.922Z,6.63
2018-07-08T23:33:16.657Z,6.90
2018-07-08T23:35:52.031Z,6.13
2018-07-08T23:38:27.157Z,7.00
2018-07-08T23:41:03.169Z,6.83
2018-07-08T23:43:38.159Z,6.33
2018-07-08T23:46:13.585Z,7.27
2018-07-08T23:48:48.547Z,6.47
2018-07-08T23:51:24.069Z,6.17
2018-07-08T23:53:59.370Z,6.60
2018-07-08T23:56:34.323Z,6.30
2018-07-08T23:59:09.197Z,6.03
